createdAt,value
2023-03-17T00:00:46.197Z,100405.50
2023-03-17T00:03:22.264Z,100402.94
2023-03-17T00:05:50.315Z,100392.59
2023-03-17T00:08:23.215Z,100404.91
2023-03-17T00:10:51.660Z,100405.63
2023-03-17T00:13:19.790Z,100412.59
2023-03-17T00:15:52.591Z,100414.88
2023-03-17T00:18:20.577Z,100414.72
2023-03-17T00:20:48.561Z,100416.41
2023-03-17T00:23:18.923Z,100413.09
2023-03-17T00:25:47.272Z,100413.22
2023-03-17T00:28:21.143Z,100426.84
2023-03-17T00:30:52.761Z,100425.12
2023-03-17T00:33:22.877Z,100410.72
2023-03-17T00:35:50.753Z,100428.84
2023-03-17T00:38:20.549Z,100435.44
2023-03-17T00:40:49.116Z,100434.56
2023-03-17T00:43:16.973Z,100429.47
2023-03-17T00:45:46.947Z,100445.59
2023-03-17T00:48:18.850Z,100442.25
2023-03-17T00:50:48.192Z,100454.59
2023-03-17T00:53:18.928Z,100458.72
2023-03-17T00:55:47.886Z,100455.34
2023-03-17T00:58:34.502Z,100455.41
2023-03-17T01:01:02.391Z,100455.28
2023-03-17T01:03:31.146Z,100457.37
2023-03-17T01:05:59.623Z,100454.75
2023-03-17T01:08:30.257Z,100451.38
2023-03-17T01:10:58.518Z,100457.37
2023-03-17T01:13:26.820Z,100460.59
2023-03-17T01:15:56.494Z,100463.38
2023-03-17T01:18:24.952Z,100474.50
2023-03-17T01:20:53.289Z,100480.50
2023-03-17T01:23:22.196Z,100479.81
2023-03-17T01:25:50.280Z,100482.31
2023-03-17T01:28:19.754Z,100495.41
2023-03-17T01:30:47.563Z,100501.13
2023-03-17T01:33:15.174Z,100495.38
2023-03-17T01:35:46.023Z,100502.72
2023-03-17T01:38:15.062Z,100505.53
2023-03-17T01:40:46.995Z,100511.87
2023-03-17T01:43:23.431Z,100519.66
2023-03-17T01:46:17.869Z,100503.12
2023-03-17T01:48:52.999Z,100527.69
2023-03-17T01:51:27.863Z,100526.19
2023-03-17T01:53:56.264Z,100528.56
2023-03-17T01:56:24.800Z,100504.19
2023-03-17T01:58:54.929Z,100516.16
2023-03-17T02:01:30.710Z,100526.50
2023-03-17T02:03:59.594Z,100541.09
2023-03-17T02:06:27.352Z,100528.28
2023-03-17T02:08:54.798Z,100531.69
2023-03-17T02:11:22.640Z,100526.56
2023-03-17T02:13:50.259Z,100519.88
2023-03-17T02:16:18.172Z,100522.28
2023-03-17T02:18:47.878Z,100525.88
2023-03-17T02:21:38.926Z,100538.78
2023-03-17T02:24:16.000Z,100534.47
2023-03-17T02:26:45.711Z,100533.59
2023-03-17T02:29:13.353Z,100534.75
2023-03-17T02:31:41.189Z,100535.59
2023-03-17T02:34:08.401Z,100542.53
2023-03-17T02:36:36.588Z,100535.63
2023-03-17T02:39:04.572Z,100548.78
2023-03-17T02:41:31.786Z,100546.84
2023-03-17T02:44:00.761Z,100552.53
2023-03-17T02:46:28.181Z,100556.31
2023-03-17T02:49:00.881Z,100546.69
2023-03-17T02:51:29.028Z,100557.25
2023-03-17T02:53:56.271Z,100556.44
2023-03-17T02:56:23.562Z,100566.03
2023-03-17T02:58:51.259Z,100569.50
2023-03-17T03:01:18.685Z,100571.25
2023-03-17T03:03:46.028Z,100588.47
2023-03-17T03:06:13.746Z,100606.75
2023-03-17T03:08:40.910Z,100618.81
2023-03-17T03:11:08.070Z,100627.44
2023-03-17T03:13:36.828Z,100629.97
2023-03-17T03:16:04.796Z,100626.41
2023-03-17T03:18:32.898Z,100635.69
2023-03-17T03:21:01.117Z,100633.28
2023-03-17T03:23:28.315Z,100645.31
2023-03-17T03:25:55.834Z,100641.84
2023-03-17T03:28:24.094Z,100647.03
2023-03-17T03:30:51.698Z,100640.37
2023-03-17T03:33:18.854Z,100636.16
2023-03-17T03:35:46.360Z,100638.72
2023-03-17T03:38:13.959Z,100643.19
2023-03-17T03:40:42.334Z,100642.44
2023-03-17T03:43:21.875Z,100644.16
2023-03-17T03:45:50.904Z,100637.34
2023-03-17T03:48:19.294Z,100639.06
2023-03-17T03:50:46.883Z,100645.06
2023-03-17T03:53:15.301Z,100655.03
2023-03-17T03:55:42.866Z,100658.38
2023-03-17T03:58:12.457Z,100665.91
2023-03-17T04:00:39.925Z,100663.00
2023-03-17T04:03:07.809Z,100667.25
2023-03-17T04:05:35.638Z,100677.44
2023-03-17T04:08:04.630Z,100688.50
2023-03-17T04:10:32.748Z,100685.88
2023-03-17T04:13:00.692Z,100693.50
2023-03-17T04:15:27.906Z,100690.06
2023-03-17T04:17:55.721Z,100696.16
2023-03-17T04:20:24.027Z,100690.03
2023-03-17T04:22:51.533Z,100690.91
2023-03-17T04:25:19.426Z,100696.47
2023-03-17T04:27:46.705Z,100677.78
2023-03-17T04:30:14.803Z,100709.66
2023-03-17T04:32:42.414Z,100725.03
2023-03-17T04:35:14.593Z,100732.63
2023-03-17T04:37:43.464Z,100746.56
2023-03-17T04:40:13.092Z,100741.63
2023-03-17T04:42:40.768Z,100728.87
2023-03-17T04:45:11.444Z,100731.28
2023-03-17T04:47:39.576Z,100740.78
2023-03-17T04:50:08.978Z,100742.59
2023-03-17T04:52:37.121Z,100741.53
2023-03-17T04:55:06.839Z,100739.56
2023-03-17T04:57:34.662Z,100734.03
2023-03-17T05:00:02.172Z,100751.03
2023-03-17T05:02:31.154Z,100749.37
2023-03-17T05:04:58.318Z,100754.59
2023-03-17T05:07:27.216Z,100768.25
2023-03-17T05:09:54.365Z,100777.69
2023-03-17T05:12:21.563Z,100788.84
2023-03-17T05:14:48.968Z,100782.81
2023-03-17T05:17:16.326Z,100791.56
2023-03-17T05:19:43.685Z,100800.00
2023-03-17T05:22:11.653Z,100808.25
2023-03-17T05:24:38.822Z,100809.38
2023-03-17T05:27:06.162Z,100817.53
2023-03-17T05:29:33.882Z,100823.22
2023-03-17T05:32:03.404Z,100815.88
2023-03-17T05:34:31.271Z,100813.22
2023-03-17T05:36:58.691Z,100820.13
2023-03-17T05:39:26.723Z,100837.84
2023-03-17T05:41:53.915Z,100848.53
2023-03-17T05:44:21.833Z,100843.56
2023-03-17T05:46:49.401Z,100848.22
2023-03-17T05:49:16.561Z,100853.00
2023-03-17T05:51:44.020Z,100857.72
2023-03-17T05:54:11.279Z,100874.09
2023-03-17T05:56:38.515Z,100858.84
2023-03-17T05:59:05.948Z,100881.13
2023-03-17T06:01:33.353Z,100890.22
2023-03-17T06:04:01.946Z,100894.84
2023-03-17T06:06:29.547Z,100906.38
2023-03-17T06:08:56.830Z,100902.72
2023-03-17T06:11:24.474Z,100905.16
2023-03-17T06:13:52.912Z,100907.19
2023-03-17T06:16:20.919Z,100917.31
2023-03-17T06:18:48.740Z,100925.50
2023-03-17T06:21:16.422Z,100922.88
2023-03-17T06:23:43.632Z,100920.81
2023-03-17T06:26:11.114Z,100921.56
2023-03-17T06:28:38.355Z,100916.41
2023-03-17T06:31:07.316Z,100926.13
2023-03-17T06:33:36.654Z,100922.31
2023-03-17T06:36:04.265Z,100929.34
2023-03-17T06:38:31.502Z,100921.78
2023-03-17T06:40:58.911Z,100925.81
2023-03-17T06:43:26.513Z,100917.31
2023-03-17T06:45:53.763Z,100915.41
2023-03-17T06:48:23.517Z,100927.78
2023-03-17T06:50:50.745Z,100922.94
2023-03-17T06:53:19.214Z,100933.88
2023-03-17T06:55:48.219Z,100937.25
2023-03-17T06:58:17.172Z,100944.66
2023-03-17T07:00:47.202Z,100943.28
2023-03-17T07:03:19.008Z,100939.31
2023-03-17T07:05:46.876Z,100933.97
2023-03-17T07:08:14.518Z,100911.66
2023-03-17T07:10:43.845Z,100935.28
2023-03-17T07:13:11.006Z,100928.63
2023-03-17T07:15:38.739Z,100932.25
2023-03-17T07:18:07.161Z,100925.13
2023-03-17T07:20:34.406Z,100931.16
2023-03-17T07:23:01.829Z,100929.81
2023-03-17T07:25:29.629Z,100938.09
2023-03-17T07:27:57.165Z,100943.19
2023-03-17T07:30:25.927Z,100944.56
2023-03-17T07:32:54.019Z,100956.56
2023-03-17T07:35:21.393Z,100946.44
2023-03-17T07:37:48.865Z,100941.78
2023-03-17T07:40:18.514Z,100954.16
2023-03-17T07:42:45.662Z,100954.28
2023-03-17T07:45:13.402Z,100966.16
2023-03-17T07:47:40.820Z,100964.47
2023-03-17T07:50:08.530Z,100953.72
2023-03-17T07:52:36.106Z,100984.06
2023-03-17T07:55:03.563Z,100969.91
2023-03-17T07:57:30.962Z,100978.28
2023-03-17T07:59:58.880Z,100970.91
2023-03-17T08:02:26.461Z,100973.66
2023-03-17T08:04:54.683Z,100972.75
2023-03-17T08:07:22.076Z,100968.59
2023-03-17T08:09:49.773Z,100975.41
2023-03-17T08:12:17.345Z,100960.91
2023-03-17T08:14:44.588Z,100976.28
2023-03-17T08:17:11.979Z,100983.94
2023-03-17T08:19:39.402Z,100987.94
2023-03-17T08:22:06.931Z,100995.03
2023-03-17T08:24:34.459Z,100992.38
2023-03-17T08:27:01.930Z,100994.41
2023-03-17T08:29:30.095Z,100994.34
2023-03-17T08:31:57.790Z,101013.28
2023-03-17T08:34:26.546Z,101017.88
2023-03-17T08:36:54.002Z,101029.13
2023-03-17T08:39:21.643Z,101030.13
2023-03-17T08:41:49.163Z,101033.16
2023-03-17T08:44:16.731Z,101030.50
2023-03-17T08:46:44.167Z,101033.19
2023-03-17T08:49:12.706Z,101047.50
2023-03-17T08:51:41.986Z,101048.97
2023-03-17T08:54:10.212Z,101042.75
2023-03-17T08:56:38.176Z,101051.19
2023-03-17T08:59:07.332Z,101042.69
2023-03-17T09:01:35.426Z,101051.66
2023-03-17T09:04:03.514Z,101052.16
2023-03-17T09:06:31.678Z,101053.66
2023-03-17T09:09:00.277Z,101056.72
2023-03-17T09:11:30.028Z,101038.69
2023-03-17T09:13:57.355Z,101063.91
2023-03-17T09:16:25.380Z,101073.16
2023-03-17T09:18:53.110Z,101067.09
2023-03-17T09:21:21.397Z,101070.78
2023-03-17T09:23:48.741Z,101080.44
2023-03-17T09:26:16.402Z,101079.75
2023-03-17T09:28:44.865Z,101087.06
2023-03-17T09:31:13.069Z,101083.44
2023-03-17T09:33:41.896Z,101078.53
2023-03-17T09:36:10.415Z,101077.50
2023-03-17T09:38:38.607Z,101076.34
2023-03-17T09:41:35.353Z,101086.25
2023-03-17T09:44:38.952Z,101079.75
2023-03-17T09:47:08.523Z,101086.72
2023-03-17T09:49:45.701Z,101082.75
2023-03-17T09:52:16.917Z,101083.19
2023-03-17T09:54:46.756Z,101085.81
2023-03-17T09:57:21.092Z,101073.16
2023-03-17T09:59:55.318Z,101099.66
2023-03-17T10:02:30.159Z,101097.13
2023-03-17T10:04:58.235Z,101091.47
2023-03-17T10:07:37.350Z,101098.22
2023-03-17T10:10:15.509Z,101103.44
2023-03-17T10:12:57.146Z,101106.25
2023-03-17T10:15:41.231Z,101105.06
2023-03-17T10:18:12.735Z,101104.16
2023-03-17T10:20:51.618Z,101113.88
2023-03-17T10:23:24.935Z,101112.91
2023-03-17T10:25:53.418Z,101114.13
2023-03-17T10:28:27.647Z,101123.97
2023-03-17T10:31:02.245Z,101116.19
2023-03-17T10:33:30.481Z,101121.75
2023-03-17T10:36:09.961Z,101118.41
2023-03-17T10:38:37.374Z,101125.31
2023-03-17T10:41:10.061Z,101131.25
2023-03-17T10:43:45.905Z,101126.94
2023-03-17T10:46:24.559Z,101131.97
2023-03-17T10:48:58.325Z,101124.66
2023-03-17T10:51:32.507Z,101141.63
2023-03-17T10:54:01.981Z,101132.69
2023-03-17T10:56:36.490Z,101131.53
2023-03-17T10:59:07.938Z,101136.44
2023-03-17T11:01:41.537Z,101138.28
2023-03-17T11:04:24.050Z,101142.37
2023-03-17T11:06:53.074Z,101134.16
2023-03-17T11:09:21.616Z,101149.06
2023-03-17T11:12:04.516Z,101142.25
2023-03-17T11:14:32.081Z,101154.69
2023-03-17T11:17:19.184Z,101157.03
2023-03-17T11:19:58.073Z,101154.34
2023-03-17T11:22:38.270Z,101150.59
2023-03-17T11:25:23.440Z,101148.31
2023-03-17T11:27:58.899Z,101159.78
2023-03-17T11:30:36.443Z,101170.28
2023-03-17T11:33:28.623Z,101166.56
2023-03-17T11:36:01.885Z,101162.44
2023-03-17T11:38:30.216Z,101173.81
2023-03-17T11:41:06.801Z,101175.59
2023-03-17T11:43:45.456Z,101169.75
2023-03-17T11:46:16.073Z,101174.03
2023-03-17T11:48:56.844Z,101175.84
2023-03-17T11:52:03.941Z,101175.87
2023-03-17T11:55:00.201Z,101195.16
2023-03-17T11:57:35.660Z,101181.88
2023-03-17T12:00:05.439Z,101187.88
2023-03-17T12:02:45.971Z,101193.81
2023-03-17T12:05:19.060Z,101190.56
2023-03-17T12:07:53.287Z,101181.34
2023-03-17T12:10:45.422Z,101192.66
2023-03-17T12:13:16.735Z,101192.84
2023-03-17T12:15:51.191Z,101195.69
2023-03-17T12:18:26.576Z,101202.19
2023-03-17T12:21:01.944Z,101207.34
2023-03-17T12:23:40.337Z,101202.53
2023-03-17T12:26:13.861Z,101207.41
2023-03-17T12:28:57.412Z,101212.13
2023-03-17T12:31:31.825Z,101207.91
2023-03-17T12:34:15.575Z,101216.72
2023-03-17T12:36:44.512Z,101209.50
2023-03-17T12:39:16.432Z,101213.31
2023-03-17T12:42:16.677Z,101213.91
2023-03-17T12:45:16.726Z,101211.34
2023-03-17T12:47:50.517Z,101220.97
2023-03-17T12:50:28.120Z,101220.97
2023-03-17T12:53:27.085Z,101217.06
2023-03-17T12:55:59.927Z,101220.13
2023-03-17T12:58:44.938Z,101226.72
2023-03-17T13:01:46.078Z,101222.91
2023-03-17T13:04:35.648Z,101224.53
2023-03-17T13:07:09.500Z,101225.12
2023-03-17T13:10:02.877Z,101203.97
2023-03-17T13:12:35.864Z,101233.22
2023-03-17T13:15:03.407Z,101240.63
2023-03-17T13:17:32.805Z,101231.53
2023-03-17T13:20:18.378Z,101233.28
2023-03-17T13:23:06.954Z,101241.13
2023-03-17T13:25:45.653Z,101240.13
2023-03-17T13:28:23.260Z,101224.34
2023-03-17T13:31:29.900Z,101241.62
2023-03-17T13:34:03.419Z,101239.47
2023-03-17T13:36:38.607Z,101242.91
2023-03-17T13:39:31.110Z,101261.88
2023-03-17T13:42:22.521Z,101264.34
2023-03-17T13:45:16.882Z,101266.66
2023-03-17T13:47:46.035Z,101260.22
2023-03-17T13:50:21.432Z,101271.16
2023-03-17T13:52:55.638Z,101282.22
2023-03-17T13:55:23.844Z,101287.44
2023-03-17T13:58:18.709Z,101284.06
2023-03-17T14:00:55.301Z,101294.97
2023-03-17T14:03:47.662Z,101293.00
2023-03-17T14:06:18.017Z,101278.13
2023-03-17T14:08:54.504Z,101296.62
2023-03-17T14:11:23.898Z,101293.25
2023-03-17T14:14:32.141Z,101312.38
2023-03-17T14:17:12.691Z,101296.59
2023-03-17T14:19:41.953Z,101294.66
2023-03-17T14:22:25.865Z,101308.06
2023-03-17T14:24:55.335Z,101303.88
2023-03-17T14:27:24.481Z,101311.94
2023-03-17T14:29:52.507Z,101310.69
2023-03-17T14:32:23.885Z,101312.75
2023-03-17T14:34:57.487Z,101314.72
2023-03-17T14:37:28.738Z,101319.41
2023-03-17T14:40:00.218Z,101313.56
2023-03-17T14:42:31.679Z,101326.00
2023-03-17T14:45:07.248Z,101330.34
2023-03-17T14:47:42.948Z,101330.47
2023-03-17T14:50:25.018Z,101342.37
2023-03-17T14:52:52.788Z,101348.78
2023-03-17T14:55:20.847Z,101343.03
2023-03-17T14:57:51.796Z,101348.47
2023-03-17T15:00:38.224Z,101348.44
2023-03-17T15:03:20.005Z,101359.28
2023-03-17T15:05:50.441Z,101345.31
2023-03-17T15:08:41.396Z,101363.03
2023-03-17T15:11:17.976Z,101361.44
2023-03-17T15:13:45.687Z,101388.03
2023-03-17T15:16:26.197Z,101379.59
2023-03-17T15:19:02.699Z,101391.81
2023-03-17T15:21:35.845Z,101397.09
2023-03-17T15:24:06.023Z,101402.47
2023-03-17T15:26:33.648Z,101408.62
2023-03-17T15:29:01.002Z,101406.44
2023-03-17T15:31:30.335Z,101413.50
2023-03-17T15:33:58.084Z,101419.09
2023-03-17T15:36:32.713Z,101423.13
2023-03-17T15:39:01.272Z,101426.41
2023-03-17T15:41:28.868Z,101420.31
2023-03-17T15:43:56.887Z,101432.94
2023-03-17T15:46:31.118Z,101433.00
2023-03-17T15:48:58.905Z,101427.88
2023-03-17T15:51:26.596Z,101437.06
2023-03-17T15:53:53.953Z,101437.72
2023-03-17T15:56:22.308Z,101439.31
2023-03-17T15:58:52.463Z,101449.69
2023-03-17T16:01:21.002Z,101443.91
2023-03-17T16:03:49.123Z,101446.34
2023-03-17T16:06:19.711Z,101446.06
2023-03-17T16:08:47.417Z,101453.13
2023-03-17T16:11:19.204Z,101456.78
2023-03-17T16:13:47.690Z,101461.31
2023-03-17T16:16:30.276Z,101478.66
2023-03-17T16:18:58.511Z,101472.66
2023-03-17T16:21:26.717Z,101476.44
2023-03-17T16:23:54.619Z,101485.06
2023-03-17T16:26:22.148Z,101493.81
2023-03-17T16:28:50.004Z,101489.53
2023-03-17T16:31:23.371Z,101497.38
2023-03-17T16:33:52.829Z,101493.97
2023-03-17T16:36:22.636Z,101503.53
2023-03-17T16:38:51.148Z,101508.63
2023-03-17T16:41:22.694Z,101514.69
2023-03-17T16:43:53.822Z,101509.47
2023-03-17T16:46:22.950Z,101519.16
2023-03-17T16:48:51.137Z,101529.59
2023-03-17T16:51:19.232Z,101538.22
2023-03-17T16:53:47.271Z,101535.66
2023-03-17T16:56:19.093Z,101537.44
2023-03-17T16:58:47.759Z,101537.44
2023-03-17T17:01:19.797Z,101543.34
2023-03-17T17:03:48.103Z,101532.31
2023-03-17T17:06:16.870Z,101549.50
2023-03-17T17:08:45.757Z,101553.81
2023-03-17T17:11:14.762Z,101557.41
2023-03-17T17:13:43.434Z,101559.06
2023-03-17T17:16:21.135Z,101557.34
2023-03-17T17:18:49.087Z,101553.00
2023-03-17T17:21:16.766Z,101563.44
2023-03-17T17:23:45.148Z,101577.19
2023-03-17T17:26:12.611Z,101574.59
2023-03-17T17:28:40.462Z,101565.97
2023-03-17T17:31:09.620Z,101576.28
2023-03-17T17:33:37.889Z,101579.75
2023-03-17T17:36:07.887Z,101588.34
2023-03-17T17:38:35.679Z,101587.53
2023-03-17T17:41:05.765Z,101584.00
2023-03-17T17:43:34.858Z,101591.81
2023-03-17T17:46:02.517Z,101598.66
2023-03-17T17:48:29.874Z,101603.84
2023-03-17T17:50:57.948Z,101601.25
2023-03-17T17:53:27.760Z,101605.53
2023-03-17T17:55:54.939Z,101625.31
2023-03-17T17:58:24.446Z,101621.88
2023-03-17T18:00:57.353Z,101627.88
2023-03-17T18:03:26.292Z,101633.87
2023-03-17T18:05:56.358Z,101631.31
2023-03-17T18:08:26.018Z,101635.62
2023-03-17T18:10:53.543Z,101643.34
2023-03-17T18:13:21.415Z,101647.66
2023-03-17T18:15:49.737Z,101646.78
2023-03-17T18:18:17.124Z,101642.50
2023-03-17T18:20:44.564Z,101656.25
2023-03-17T18:23:12.945Z,101633.91
2023-03-17T18:25:41.205Z,101650.19
2023-03-17T18:28:08.546Z,101648.50
2023-03-17T18:30:36.357Z,101655.38
2023-03-17T18:33:13.615Z,101660.50
2023-03-17T18:35:41.761Z,101651.06
2023-03-17T18:38:09.463Z,101667.37
2023-03-17T18:40:37.375Z,101665.59
2023-03-17T18:43:04.797Z,101669.03
2023-03-17T18:45:32.427Z,101681.84
2023-03-17T18:48:00.214Z,101678.38
2023-03-17T18:50:27.586Z,101682.62
2023-03-17T18:52:55.951Z,101684.34
2023-03-17T18:55:23.367Z,101692.00
2023-03-17T18:57:50.991Z,101692.78
2023-03-17T19:00:18.863Z,101693.59
2023-03-17T19:02:47.058Z,101695.41
2023-03-17T19:05:14.457Z,101692.69
2023-03-17T19:07:42.105Z,101701.25
2023-03-17T19:10:12.188Z,101701.22
2023-03-17T19:12:41.101Z,101718.37
2023-03-17T19:15:09.405Z,101707.25
2023-03-17T19:17:37.171Z,101697.84
2023-03-17T19:20:05.803Z,101709.09
2023-03-17T19:22:33.971Z,101719.50
2023-03-17T19:25:01.581Z,101717.72
2023-03-17T19:27:30.657Z,101720.25
2023-03-17T19:29:59.277Z,101716.62
2023-03-17T19:32:26.775Z,101714.94
2023-03-17T19:34:54.314Z,101727.03
2023-03-17T19:37:22.879Z,101724.56
2023-03-17T19:39:50.236Z,101703.16
2023-03-17T19:42:17.880Z,101728.91
2023-03-17T19:44:45.702Z,101727.84
2023-03-17T19:47:13.051Z,101730.56
2023-03-17T19:49:40.433Z,101724.38
2023-03-17T19:52:09.691Z,101731.97
2023-03-17T19:54:41.879Z,101727.66
2023-03-17T19:57:09.316Z,101730.22
2023-03-17T19:59:37.205Z,101738.75
2023-03-17T20:02:04.560Z,101738.81
2023-03-17T20:04:32.253Z,101729.41
2023-03-17T20:07:00.118Z,101742.19
2023-03-17T20:09:27.873Z,101743.03
2023-03-17T20:11:56.568Z,101743.13
2023-03-17T20:14:24.311Z,101743.91
2023-03-17T20:16:53.618Z,101747.28
2023-03-17T20:19:21.476Z,101743.75
2023-03-17T20:21:48.818Z,101744.53
2023-03-17T20:24:16.685Z,101742.72
2023-03-17T20:26:44.674Z,101747.94
2023-03-17T20:29:14.515Z,101751.41
2023-03-17T20:31:42.829Z,101746.31
2023-03-17T20:34:10.716Z,101747.81
2023-03-17T20:36:42.530Z,101757.38
2023-03-17T20:39:13.828Z,101752.91
2023-03-17T20:41:41.534Z,101756.38
2023-03-17T20:44:09.258Z,101756.66
2023-03-17T20:46:36.702Z,101757.19
2023-03-17T20:49:05.701Z,101752.19
2023-03-17T20:51:34.319Z,101755.56
2023-03-17T20:54:02.368Z,101757.69
2023-03-17T20:56:33.884Z,101755.94
2023-03-17T20:59:05.223Z,101751.53
2023-03-17T21:04:13.604Z,101769.41
2023-03-17T21:06:42.098Z,101765.16
2023-03-17T21:09:10.926Z,101772.13
2023-03-17T21:11:38.083Z,101765.16
2023-03-17T21:14:08.074Z,101773.75
2023-03-17T21:16:37.477Z,101769.22
2023-03-17T21:19:07.403Z,101778.66
2023-03-17T21:21:38.900Z,101760.34
2023-03-17T21:24:08.439Z,101781.09
2023-03-17T21:26:35.929Z,101785.22
2023-03-17T21:29:22.113Z,101787.88
2023-03-17T21:31:48.906Z,101789.56
2023-03-17T21:34:15.571Z,101792.25
2023-03-17T21:36:42.198Z,101789.69
2023-03-17T21:39:09.677Z,101792.22
2023-03-17T21:41:37.946Z,101797.59
2023-03-17T21:44:05.796Z,101807.47
2023-03-17T21:46:32.918Z,101805.88
2023-03-17T21:48:59.915Z,101807.56
2023-03-17T21:51:27.054Z,101800.00
2023-03-17T21:53:53.818Z,101807.50
2023-03-17T21:56:20.475Z,101810.91
2023-03-17T21:58:48.416Z,101824.56
2023-03-17T22:01:16.742Z,101808.06
2023-03-17T22:03:43.893Z,101816.78
2023-03-17T22:06:12.582Z,101823.47
2023-03-17T22:08:39.209Z,101819.41
2023-03-17T22:11:08.304Z,101819.34
2023-03-17T22:13:35.719Z,101820.28
2023-03-17T22:16:03.717Z,101821.47
2023-03-17T22:18:31.764Z,101827.19
2023-03-17T22:20:59.442Z,101827.59
2023-03-17T22:23:28.303Z,101836.66
2023-03-17T22:25:55.836Z,101830.50
2023-03-17T22:28:23.807Z,101841.56
2023-03-17T22:30:50.856Z,101843.13
2023-03-17T22:33:17.590Z,101843.34
2023-03-17T22:35:44.319Z,101838.59
2023-03-17T22:38:12.405Z,101842.34
2023-03-17T22:40:39.485Z,101850.87
2023-03-17T22:43:06.671Z,101854.72
2023-03-17T22:45:33.203Z,101852.59
2023-03-17T22:48:00.573Z,101843.00
2023-03-17T22:50:27.265Z,101867.28
2023-03-17T22:52:53.762Z,101859.12
2023-03-17T22:55:20.656Z,101856.63
2023-03-17T22:57:47.361Z,101861.53
2023-03-17T23:00:16.424Z,101861.97
2023-03-17T23:02:45.462Z,101871.09
2023-03-17T23:05:14.069Z,101874.50
2023-03-17T23:07:50.519Z,101878.88
2023-03-17T23:10:22.413Z,101879.66
2023-03-17T23:12:50.486Z,101889.81
2023-03-17T23:15:18.207Z,101883.31
2023-03-17T23:17:45.722Z,101886.00
2023-03-17T23:20:12.988Z,101887.28
2023-03-17T23:22:41.249Z,101892.59
2023-03-17T23:25:08.524Z,101898.44
2023-03-17T23:27:35.344Z,101901.50
2023-03-17T23:30:03.056Z,101903.47
2023-03-17T23:32:31.275Z,101904.25
2023-03-17T23:34:57.805Z,101908.19
2023-03-17T23:37:24.403Z,101908.59
2023-03-17T23:39:51.202Z,101910.88
2023-03-17T23:42:17.918Z,101927.00
2023-03-17T23:44:44.496Z,101925.19
2023-03-17T23:47:13.987Z,101918.31
2023-03-17T23:49:40.495Z,101916.94
2023-03-17T23:52:06.991Z,101923.19
2023-03-17T23:54:33.759Z,101922.28
2023-03-17T23:57:00.429Z,101931.81
2023-03-17T23:59:28.658Z,101935.59
